sensor_id;sensor_type;location;lat;lon;timestamp;P1;durP1;ratioP1;P2;durP2;ratioP2
59062;SDS011;44851;45.648;9.004;2023-05-07T00:00:08;14.80;;;13.50;;
59062;SDS011;44851;45.648;9.004;2023-05-07T00:02:34;12.73;;;11.53;;
59062;SDS011;44851;45.648;9.004;2023-05-07T00:05:00;11.43;;;10.43;;
59062;SDS011;44851;45.648;9.004;2023-05-07T00:07:27;11.27;;;10.27;;
59062;SDS011;44851;45.648;9.004;2023-05-07T00:09:52;11.60;;;10.40;;
59062;SDS011;44851;45.648;9.004;2023-05-07T00:12:18;11.53;;;8.13;;
59062;SDS011;44851;45.648;9.004;2023-05-07T00:14:43;7.93;;;7.23;;
59062;SDS011;44851;45.648;9.004;2023-05-07T00:17:09;6.03;;;5.43;;
59062;SDS011;44851;45.648;9.004;2023-05-07T00:19:34;6.07;;;4.90;;
59062;SDS011;44851;45.648;9.004;2023-05-07T00:22:00;5.60;;;5.00;;
59062;SDS011;44851;45.648;9.004;2023-05-07T00:24:25;4.93;;;4.43;;
59062;SDS011;44851;45.648;9.004;2023-05-07T00:26:51;5.97;;;3.90;;
59062;SDS011;44851;45.648;9.004;2023-05-07T00:29:17;3.00;;;2.77;;
59062;SDS011;44851;45.648;9.004;2023-05-07T00:31:43;3.60;;;3.27;;
59062;SDS011;44851;45.648;9.004;2023-05-07T00:34:08;2.87;;;2.63;;
59062;SDS011;44851;45.648;9.004;2023-05-07T00:36:34;3.60;;;2.77;;
59062;SDS011;44851;45.648;9.004;2023-05-07T00:38:59;3.23;;;2.93;;
59062;SDS011;44851;45.648;9.004;2023-05-07T00:41:27;3.13;;;2.63;;
59062;SDS011;44851;45.648;9.004;2023-05-07T00:43:52;2.70;;;2.50;;
59062;SDS011;44851;45.648;9.004;2023-05-07T00:46:19;2.57;;;2.37;;
59062;SDS011;44851;45.648;9.004;2023-05-07T00:48:45;3.10;;;2.80;;
59062;SDS011;44851;45.648;9.004;2023-05-07T00:51:11;3.90;;;3.60;;
59062;SDS011;44851;45.648;9.004;2023-05-07T00:53:37;5.30;;;4.80;;
59062;SDS011;44851;45.648;9.004;2023-05-07T00:56:03;6.13;;;5.63;;
59062;SDS011;44851;45.648;9.004;2023-05-07T00:58:31;5.83;;;5.33;;
59062;SDS011;44851;45.648;9.004;2023-05-07T01:00:57;5.93;;;5.43;;
59062;SDS011;44851;45.648;9.004;2023-05-07T01:03:23;5.97;;;4.57;;
59062;SDS011;44851;45.648;9.004;2023-05-07T01:05:48;5.50;;;4.50;;
59062;SDS011;44851;45.648;9.004;2023-05-07T01:08:15;4.43;;;3.67;;
59062;SDS011;44851;45.648;9.004;2023-05-07T01:10:42;5.20;;;3.57;;
59062;SDS011;44851;45.648;9.004;2023-05-07T01:13:09;4.77;;;3.30;;
59062;SDS011;44851;45.648;9.004;2023-05-07T01:15:36;3.87;;;3.57;;
59062;SDS011;44851;45.648;9.004;2023-05-07T01:18:02;6.33;;;3.37;;
59062;SDS011;44851;45.648;9.004;2023-05-07T01:20:28;2.93;;;2.60;;
59062;SDS011;44851;45.648;9.004;2023-05-07T01:22:53;4.07;;;2.73;;
59062;SDS011;44851;45.648;9.004;2023-05-07T01:25:19;2.30;;;2.10;;
59062;SDS011;44851;45.648;9.004;2023-05-07T01:27:45;4.13;;;2.40;;
59062;SDS011;44851;45.648;9.004;2023-05-07T01:30:11;3.73;;;2.30;;
59062;SDS011;44851;45.648;9.004;2023-05-07T01:32:52;4.60;;;2.53;;
59062;SDS011;44851;45.648;9.004;2023-05-07T01:35:22;3.83;;;2.77;;
59062;SDS011;44851;45.648;9.004;2023-05-07T01:37:53;3.17;;;2.87;;
59062;SDS011;44851;45.648;9.004;2023-05-07T01:40:19;7.33;;;3.37;;
59062;SDS011;44851;45.648;9.004;2023-05-07T01:42:45;7.03;;;3.30;;
59062;SDS011;44851;45.648;9.004;2023-05-07T01:45:13;9.50;;;5.00;;
59062;SDS011;44851;45.648;9.004;2023-05-07T01:47:38;7.87;;;4.33;;
59062;SDS011;44851;45.648;9.004;2023-05-07T01:50:07;6.50;;;3.07;;
59062;SDS011;44851;45.648;9.004;2023-05-07T01:52:34;5.87;;;3.00;;
59062;SDS011;44851;45.648;9.004;2023-05-07T01:54:59;6.07;;;3.10;;
59062;SDS011;44851;45.648;9.004;2023-05-07T01:57:25;4.67;;;3.60;;
59062;SDS011;44851;45.648;9.004;2023-05-07T01:59:50;4.00;;;3.30;;
59062;SDS011;44851;45.648;9.004;2023-05-07T02:02:16;6.60;;;3.50;;
59062;SDS011;44851;45.648;9.004;2023-05-07T02:04:41;3.80;;;3.30;;
59062;SDS011;44851;45.648;9.004;2023-05-07T02:07:06;6.50;;;3.70;;
59062;SDS011;44851;45.648;9.004;2023-05-07T02:09:32;6.40;;;4.77;;
59062;SDS011;44851;45.648;9.004;2023-05-07T02:11:57;7.80;;;4.93;;
59062;SDS011;44851;45.648;9.004;2023-05-07T02:14:22;6.30;;;5.67;;
59062;SDS011;44851;45.648;9.004;2023-05-07T02:16:48;6.57;;;5.60;;
59062;SDS011;44851;45.648;9.004;2023-05-07T02:19:13;5.90;;;5.30;;
59062;SDS011;44851;45.648;9.004;2023-05-07T02:21:38;6.63;;;5.50;;
59062;SDS011;44851;45.648;9.004;2023-05-07T02:24:04;5.77;;;5.00;;
59062;SDS011;44851;45.648;9.004;2023-05-07T02:26:30;4.77;;;4.37;;
59062;SDS011;44851;45.648;9.004;2023-05-07T02:28:55;6.13;;;3.90;;
59062;SDS011;44851;45.648;9.004;2023-05-07T02:31:20;5.87;;;4.33;;
59062;SDS011;44851;45.648;9.004;2023-05-07T02:33:46;5.00;;;4.50;;
59062;SDS011;44851;45.648;9.004;2023-05-07T02:36:11;4.70;;;4.17;;
59062;SDS011;44851;45.648;9.004;2023-05-07T02:38:37;4.20;;;3.80;;
59062;SDS011;44851;45.648;9.004;2023-05-07T02:41:03;5.23;;;3.63;;
59062;SDS011;44851;45.648;9.004;2023-05-07T02:43:29;4.10;;;3.70;;
59062;SDS011;44851;45.648;9.004;2023-05-07T02:46:01;4.13;;;3.73;;
59062;SDS011;44851;45.648;9.004;2023-05-07T02:48:30;6.80;;;4.23;;
59062;SDS011;44851;45.648;9.004;2023-05-07T02:50:56;5.50;;;4.27;;
59062;SDS011;44851;45.648;9.004;2023-05-07T02:53:22;6.20;;;3.43;;
59062;SDS011;44851;45.648;9.004;2023-05-07T02:55:47;5.00;;;3.77;;
59062;SDS011;44851;45.648;9.004;2023-05-07T02:58:12;3.53;;;3.23;;
59062;SDS011;44851;45.648;9.004;2023-05-07T03:00:38;3.73;;;3.40;;
59062;SDS011;44851;45.648;9.004;2023-05-07T03:03:03;3.40;;;2.97;;
59062;SDS011;44851;45.648;9.004;2023-05-07T03:05:28;4.50;;;3.33;;
59062;SDS011;44851;45.648;9.004;2023-05-07T03:07:54;3.47;;;2.73;;
59062;SDS011;44851;45.648;9.004;2023-05-07T03:10:19;3.00;;;2.77;;
59062;SDS011;44851;45.648;9.004;2023-05-07T03:12:45;4.50;;;3.03;;
59062;SDS011;44851;45.648;9.004;2023-05-07T03:15:10;4.77;;;3.40;;
59062;SDS011;44851;45.648;9.004;2023-05-07T03:17:39;8.70;;;3.20;;
59062;SDS011;44851;45.648;9.004;2023-05-07T03:20:05;4.27;;;3.47;;
59062;SDS011;44851;45.648;9.004;2023-05-07T03:22:30;5.43;;;3.47;;
59062;SDS011;44851;45.648;9.004;2023-05-07T03:24:56;5.17;;;3.43;;
59062;SDS011;44851;45.648;9.004;2023-05-07T03:27:21;4.83;;;3.23;;
59062;SDS011;44851;45.648;9.004;2023-05-07T03:29:47;4.47;;;3.00;;
59062;SDS011;44851;45.648;9.004;2023-05-07T03:32:12;4.43;;;3.40;;
59062;SDS011;44851;45.648;9.004;2023-05-07T03:34:38;3.43;;;3.07;;
59062;SDS011;44851;45.648;9.004;2023-05-07T03:37:03;3.20;;;2.90;;
59062;SDS011;44851;45.648;9.004;2023-05-07T03:39:28;3.90;;;3.13;;
59062;SDS011;44851;45.648;9.004;2023-05-07T03:41:54;3.80;;;2.90;;
59062;SDS011;44851;45.648;9.004;2023-05-07T03:44:19;3.40;;;3.10;;
59062;SDS011;44851;45.648;9.004;2023-05-07T03:46:45;3.60;;;3.30;;
59062;SDS011;44851;45.648;9.004;2023-05-07T03:49:10;3.97;;;2.97;;
59062;SDS011;44851;45.648;9.004;2023-05-07T03:51:35;3.30;;;2.97;;
59062;SDS011;44851;45.648;9.004;2023-05-07T03:54:01;4.07;;;2.93;;
59062;SDS011;44851;45.648;9.004;2023-05-07T03:56:26;4.13;;;2.93;;
59062;SDS011;44851;45.648;9.004;2023-05-07T03:58:52;3.30;;;2.87;;
59062;SDS011;44851;45.648;9.004;2023-05-07T04:01:18;3.40;;;3.10;;
59062;SDS011;44851;45.648;9.004;2023-05-07T04:03:43;3.20;;;2.90;;
59062;SDS011;44851;45.648;9.004;2023-05-07T04:06:09;3.00;;;2.80;;
59062;SDS011;44851;45.648;9.004;2023-05-07T04:08:34;3.40;;;2.80;;
59062;SDS011;44851;45.648;9.004;2023-05-07T04:11:00;5.47;;;3.20;;
59062;SDS011;44851;45.648;9.004;2023-05-07T04:13:25;3.20;;;2.90;;
59062;SDS011;44851;45.648;9.004;2023-05-07T04:15:51;4.03;;;2.77;;
59062;SDS011;44851;45.648;9.004;2023-05-07T04:18:17;3.60;;;2.77;;
59062;SDS011;44851;45.648;9.004;2023-05-07T04:20:42;3.27;;;2.60;;
59062;SDS011;44851;45.648;9.004;2023-05-07T04:23:08;3.10;;;2.80;;
59062;SDS011;44851;45.648;9.004;2023-05-07T04:25:33;2.80;;;2.60;;
59062;SDS011;44851;45.648;9.004;2023-05-07T04:27:59;2.97;;;2.67;;
59062;SDS011;44851;45.648;9.004;2023-05-07T04:30:24;2.53;;;2.30;;
59062;SDS011;44851;45.648;9.004;2023-05-07T04:32:50;2.83;;;2.50;;
59062;SDS011;44851;45.648;9.004;2023-05-07T04:35:15;3.17;;;2.87;;
59062;SDS011;44851;45.648;9.004;2023-05-07T04:37:41;2.60;;;2.40;;
59062;SDS011;44851;45.648;9.004;2023-05-07T04:40:06;3.00;;;2.70;;
59062;SDS011;44851;45.648;9.004;2023-05-07T04:42:32;3.87;;;3.13;;
59062;SDS011;44851;45.648;9.004;2023-05-07T04:44:57;3.03;;;2.77;;
59062;SDS011;44851;45.648;9.004;2023-05-07T04:47:23;2.50;;;2.30;;
59062;SDS011;44851;45.648;9.004;2023-05-07T04:49:48;3.00;;;2.50;;
59062;SDS011;44851;45.648;9.004;2023-05-07T04:52:13;3.60;;;3.27;;
59062;SDS011;44851;45.648;9.004;2023-05-07T04:54:40;5.30;;;2.93;;
59062;SDS011;44851;45.648;9.004;2023-05-07T04:57:05;3.00;;;2.80;;
59062;SDS011;44851;45.648;9.004;2023-05-07T04:59:31;3.67;;;3.23;;
59062;SDS011;44851;45.648;9.004;2023-05-07T05:01:57;3.50;;;3.23;;
59062;SDS011;44851;45.648;9.004;2023-05-07T05:04:22;3.40;;;3.17;;
59062;SDS011;44851;45.648;9.004;2023-05-07T05:06:48;3.37;;;3.17;;
59062;SDS011;44851;45.648;9.004;2023-05-07T05:09:13;3.60;;;3.07;;
59062;SDS011;44851;45.648;9.004;2023-05-07T05:11:39;3.67;;;3.13;;
59062;SDS011;44851;45.648;9.004;2023-05-07T05:14:04;3.73;;;3.30;;
59062;SDS011;44851;45.648;9.004;2023-05-07T05:16:30;2.87;;;2.60;;
59062;SDS011;44851;45.648;9.004;2023-05-07T05:18:55;3.13;;;2.87;;
59062;SDS011;44851;45.648;9.004;2023-05-07T05:21:21;3.60;;;2.67;;
59062;SDS011;44851;45.648;9.004;2023-05-07T05:23:46;3.30;;;2.90;;
59062;SDS011;44851;45.648;9.004;2023-05-07T05:26:12;3.47;;;2.63;;
59062;SDS011;44851;45.648;9.004;2023-05-07T05:28:37;2.83;;;2.63;;
59062;SDS011;44851;45.648;9.004;2023-05-07T05:31:03;4.73;;;2.93;;
59062;SDS011;44851;45.648;9.004;2023-05-07T05:33:28;3.20;;;2.90;;
59062;SDS011;44851;45.648;9.004;2023-05-07T05:35:54;3.57;;;2.97;;
59062;SDS011;44851;45.648;9.004;2023-05-07T05:38:19;2.90;;;2.70;;
59062;SDS011;44851;45.648;9.004;2023-05-07T05:40:45;3.30;;;2.70;;
59062;SDS011;44851;45.648;9.004;2023-05-07T05:43:11;2.90;;;2.67;;
59062;SDS011;44851;45.648;9.004;2023-05-07T05:45:36;5.43;;;2.97;;
59062;SDS011;44851;45.648;9.004;2023-05-07T05:48:02;3.07;;;2.87;;
59062;SDS011;44851;45.648;9.004;2023-05-07T05:50:27;3.63;;;3.10;;
59062;SDS011;44851;45.648;9.004;2023-05-07T05:52:53;3.00;;;2.77;;
59062;SDS011;44851;45.648;9.004;2023-05-07T05:55:18;2.93;;;2.73;;
59062;SDS011;44851;45.648;9.004;2023-05-07T05:57:44;3.07;;;2.83;;
59062;SDS011;44851;45.648;9.004;2023-05-07T06:00:09;4.13;;;2.97;;
59062;SDS011;44851;45.648;9.004;2023-05-07T06:02:35;2.93;;;2.63;;
59062;SDS011;44851;45.648;9.004;2023-05-07T06:05:00;2.90;;;2.70;;
59062;SDS011;44851;45.648;9.004;2023-05-07T06:07:26;3.30;;;2.87;;
59062;SDS011;44851;45.648;9.004;2023-05-07T06:09:51;2.93;;;2.73;;
59062;SDS011;44851;45.648;9.004;2023-05-07T06:12:16;2.57;;;2.37;;
59062;SDS011;44851;45.648;9.004;2023-05-07T06:14:45;2.70;;;2.50;;
59062;SDS011;44851;45.648;9.004;2023-05-07T06:17:10;3.23;;;2.83;;
59062;SDS011;44851;45.648;9.004;2023-05-07T06:19:35;2.87;;;2.57;;
59062;SDS011;44851;45.648;9.004;2023-05-07T06:22:01;3.60;;;2.60;;
59062;SDS011;44851;45.648;9.004;2023-05-07T06:24:27;2.67;;;2.47;;
59062;SDS011;44851;45.648;9.004;2023-05-07T06:26:53;2.70;;;2.30;;
59062;SDS011;44851;45.648;9.004;2023-05-07T06:29:18;3.53;;;3.00;;
59062;SDS011;44851;45.648;9.004;2023-05-07T06:31:43;3.57;;;3.27;;
59062;SDS011;44851;45.648;9.004;2023-05-07T06:34:09;3.97;;;2.80;;
59062;SDS011;44851;45.648;9.004;2023-05-07T06:36:39;3.30;;;3.00;;
59062;SDS011;44851;45.648;9.004;2023-05-07T06:39:04;4.50;;;2.50;;
59062;SDS011;44851;45.648;9.004;2023-05-07T06:41:30;2.87;;;2.60;;
59062;SDS011;44851;45.648;9.004;2023-05-07T06:43:55;2.30;;;2.10;;
59062;SDS011;44851;45.648;9.004;2023-05-07T06:46:20;2.43;;;2.23;;
59062;SDS011;44851;45.648;9.004;2023-05-07T06:48:46;3.13;;;2.20;;
59062;SDS011;44851;45.648;9.004;2023-05-07T06:51:11;2.80;;;2.37;;
59062;SDS011;44851;45.648;9.004;2023-05-07T06:53:36;3.70;;;2.47;;
59062;SDS011;44851;45.648;9.004;2023-05-07T06:56:02;2.73;;;2.30;;
59062;SDS011;44851;45.648;9.004;2023-05-07T06:58:27;2.73;;;1.97;;
59062;SDS011;44851;45.648;9.004;2023-05-07T07:00:52;2.63;;;2.37;;
59062;SDS011;44851;45.648;9.004;2023-05-07T07:03:18;2.20;;;2.10;;
59062;SDS011;44851;45.648;9.004;2023-05-07T07:05:43;2.83;;;2.13;;
59062;SDS011;44851;45.648;9.004;2023-05-07T07:08:09;2.60;;;2.20;;
59062;SDS011;44851;45.648;9.004;2023-05-07T07:10:35;2.77;;;2.53;;
59062;SDS011;44851;45.648;9.004;2023-05-07T07:13:00;2.70;;;2.30;;
59062;SDS011;44851;45.648;9.004;2023-05-07T07:15:25;3.50;;;2.10;;
59062;SDS011;44851;45.648;9.004;2023-05-07T07:17:51;2.33;;;2.13;;
59062;SDS011;44851;45.648;9.004;2023-05-07T07:20:16;2.50;;;2.20;;
59062;SDS011;44851;45.648;9.004;2023-05-07T07:22:41;5.03;;;2.77;;
59062;SDS011;44851;45.648;9.004;2023-05-07T07:25:07;2.90;;;2.50;;
59062;SDS011;44851;45.648;9.004;2023-05-07T07:27:33;5.67;;;5.10;;
59062;SDS011;44851;45.648;9.004;2023-05-07T07:29:58;2.70;;;2.50;;
59062;SDS011;44851;45.648;9.004;2023-05-07T07:32:23;4.30;;;2.90;;
59062;SDS011;44851;45.648;9.004;2023-05-07T07:34:49;3.33;;;3.00;;
59062;SDS011;44851;45.648;9.004;2023-05-07T07:37:14;2.70;;;2.50;;
59062;SDS011;44851;45.648;9.004;2023-05-07T07:39:39;2.77;;;2.57;;
59062;SDS011;44851;45.648;9.004;2023-05-07T07:42:06;3.20;;;2.97;;
59062;SDS011;44851;45.648;9.004;2023-05-07T07:44:31;3.73;;;2.77;;
59062;SDS011;44851;45.648;9.004;2023-05-07T07:46:56;4.37;;;3.13;;
59062;SDS011;44851;45.648;9.004;2023-05-07T07:49:22;3.80;;;2.83;;
59062;SDS011;44851;45.648;9.004;2023-05-07T07:51:47;3.20;;;2.90;;
59062;SDS011;44851;45.648;9.004;2023-05-07T07:54:12;3.30;;;3.00;;
59062;SDS011;44851;45.648;9.004;2023-05-07T07:56:38;3.43;;;2.80;;
59062;SDS011;44851;45.648;9.004;2023-05-07T07:59:03;4.33;;;2.67;;
59062;SDS011;44851;45.648;9.004;2023-05-07T08:01:31;4.40;;;2.63;;
59062;SDS011;44851;45.648;9.004;2023-05-07T08:03:57;2.90;;;2.60;;
59062;SDS011;44851;45.648;9.004;2023-05-07T08:06:25;3.00;;;2.80;;
59062;SDS011;44851;45.648;9.004;2023-05-07T08:08:51;3.73;;;3.00;;
59062;SDS011;44851;45.648;9.004;2023-05-07T08:11:16;2.70;;;2.50;;
59062;SDS011;44851;45.648;9.004;2023-05-07T08:13:42;2.90;;;2.60;;
59062;SDS011;44851;45.648;9.004;2023-05-07T08:16:08;3.23;;;2.93;;
59062;SDS011;44851;45.648;9.004;2023-05-07T08:18:33;2.63;;;2.43;;
59062;SDS011;44851;45.648;9.004;2023-05-07T08:20:58;3.10;;;2.80;;
59062;SDS011;44851;45.648;9.004;2023-05-07T08:23:24;2.77;;;2.57;;
59062;SDS011;44851;45.648;9.004;2023-05-07T08:25:49;2.80;;;2.60;;
59062;SDS011;44851;45.648;9.004;2023-05-07T08:28:15;2.97;;;2.77;;
59062;SDS011;44851;45.648;9.004;2023-05-07T08:30:40;2.80;;;2.60;;
59062;SDS011;44851;45.648;9.004;2023-05-07T08:33:06;3.53;;;2.73;;
59062;SDS011;44851;45.648;9.004;2023-05-07T08:35:31;3.10;;;2.80;;
59062;SDS011;44851;45.648;9.004;2023-05-07T08:37:57;2.63;;;2.43;;
59062;SDS011;44851;45.648;9.004;2023-05-07T08:40:25;2.90;;;2.70;;
59062;SDS011;44851;45.648;9.004;2023-05-07T08:42:52;2.53;;;2.33;;
59062;SDS011;44851;45.648;9.004;2023-05-07T08:45:19;2.50;;;2.30;;
59062;SDS011;44851;45.648;9.004;2023-05-07T08:47:52;2.77;;;2.57;;
59062;SDS011;44851;45.648;9.004;2023-05-07T08:50:23;2.30;;;2.10;;
59062;SDS011;44851;45.648;9.004;2023-05-07T08:52:49;2.47;;;2.03;;
59062;SDS011;44851;45.648;9.004;2023-05-07T08:55:15;2.10;;;1.90;;
59062;SDS011;44851;45.648;9.004;2023-05-07T08:57:40;2.20;;;2.03;;
59062;SDS011;44851;45.648;9.004;2023-05-07T09:00:06;3.07;;;2.30;;
59062;SDS011;44851;45.648;9.004;2023-05-07T09:02:32;2.40;;;2.20;;
59062;SDS011;44851;45.648;9.004;2023-05-07T09:04:59;2.60;;;2.40;;
59062;SDS011;44851;45.648;9.004;2023-05-07T09:07:25;2.70;;;2.40;;
59062;SDS011;44851;45.648;9.004;2023-05-07T09:09:51;2.90;;;2.70;;
59062;SDS011;44851;45.648;9.004;2023-05-07T09:12:17;3.93;;;3.00;;
59062;SDS011;44851;45.648;9.004;2023-05-07T09:14:43;3.27;;;3.07;;
59062;SDS011;44851;45.648;9.004;2023-05-07T09:17:09;4.20;;;3.67;;
59062;SDS011;44851;45.648;9.004;2023-05-07T09:19:35;4.57;;;4.17;;
59062;SDS011;44851;45.648;9.004;2023-05-07T09:22:04;4.70;;;4.13;;
59062;SDS011;44851;45.648;9.004;2023-05-07T09:24:31;5.20;;;4.03;;
59062;SDS011;44851;45.648;9.004;2023-05-07T09:27:00;4.40;;;4.10;;
59062;SDS011;44851;45.648;9.004;2023-05-07T09:29:27;4.43;;;4.03;;
59062;SDS011;44851;45.648;9.004;2023-05-07T09:32:00;3.87;;;3.40;;
59062;SDS011;44851;45.648;9.004;2023-05-07T09:34:27;6.53;;;4.40;;
59062;SDS011;44851;45.648;9.004;2023-05-07T09:36:53;4.23;;;3.50;;
59062;SDS011;44851;45.648;9.004;2023-05-07T09:39:18;3.83;;;3.53;;
59062;SDS011;44851;45.648;9.004;2023-05-07T09:41:45;3.90;;;3.60;;
59062;SDS011;44851;45.648;9.004;2023-05-07T09:44:12;3.80;;;3.50;;
59062;SDS011;44851;45.648;9.004;2023-05-07T09:46:38;3.90;;;3.60;;
59062;SDS011;44851;45.648;9.004;2023-05-07T09:49:07;5.87;;;4.00;;
59062;SDS011;44851;45.648;9.004;2023-05-07T09:51:49;4.17;;;3.83;;
59062;SDS011;44851;45.648;9.004;2023-05-07T09:54:16;3.90;;;3.43;;
59062;SDS011;44851;45.648;9.004;2023-05-07T09:56:43;4.23;;;3.80;;
59062;SDS011;44851;45.648;9.004;2023-05-07T09:59:13;3.53;;;3.30;;
59062;SDS011;44851;45.648;9.004;2023-05-07T10:01:40;4.10;;;3.80;;
59062;SDS011;44851;45.648;9.004;2023-05-07T10:04:12;3.70;;;3.40;;
59062;SDS011;44851;45.648;9.004;2023-05-07T10:06:39;4.50;;;4.20;;
59062;SDS011;44851;45.648;9.004;2023-05-07T10:09:05;4.10;;;3.70;;
59062;SDS011;44851;45.648;9.004;2023-05-07T10:11:34;4.23;;;3.90;;
59062;SDS011;44851;45.648;9.004;2023-05-07T10:14:00;4.27;;;3.87;;
59062;SDS011;44851;45.648;9.004;2023-05-07T10:16:27;3.90;;;3.60;;
59062;SDS011;44851;45.648;9.004;2023-05-07T10:18:56;5.43;;;4.27;;
59062;SDS011;44851;45.648;9.004;2023-05-07T10:21:23;4.10;;;3.70;;
59062;SDS011;44851;45.648;9.004;2023-05-07T10:23:59;3.83;;;3.53;;
59062;SDS011;44851;45.648;9.004;2023-05-07T10:26:33;4.07;;;3.67;;
59062;SDS011;44851;45.648;9.004;2023-05-07T10:29:04;4.20;;;3.90;;
59062;SDS011;44851;45.648;9.004;2023-05-07T10:34:12;4.30;;;3.90;;
59062;SDS011;44851;45.648;9.004;2023-05-07T10:36:41;3.57;;;3.27;;
59062;SDS011;44851;45.648;9.004;2023-05-07T10:39:07;3.67;;;3.37;;
59062;SDS011;44851;45.648;9.004;2023-05-07T10:41:33;3.70;;;3.37;;
59062;SDS011;44851;45.648;9.004;2023-05-07T10:43:58;4.20;;;3.60;;
59062;SDS011;44851;45.648;9.004;2023-05-07T10:46:26;3.67;;;3.37;;
59062;SDS011;44851;45.648;9.004;2023-05-07T10:51:27;3.50;;;3.20;;
59062;SDS011;44851;45.648;9.004;2023-05-07T10:56:37;3.60;;;3.30;;
59062;SDS011;44851;45.648;9.004;2023-05-07T11:04:22;5.37;;;4.97;;
59062;SDS011;44851;45.648;9.004;2023-05-07T11:15:03;4.17;;;3.87;;
59062;SDS011;44851;45.648;9.004;2023-05-07T11:17:29;4.00;;;3.70;;
59062;SDS011;44851;45.648;9.004;2023-05-07T11:19:57;3.60;;;3.30;;
59062;SDS011;44851;45.648;9.004;2023-05-07T11:24:59;3.80;;;3.50;;
59062;SDS011;44851;45.648;9.004;2023-05-07T11:27:25;3.57;;;3.27;;
59062;SDS011;44851;45.648;9.004;2023-05-07T11:29:51;3.90;;;3.60;;
59062;SDS011;44851;45.648;9.004;2023-05-07T11:32:26;3.43;;;3.10;;
59062;SDS011;44851;45.648;9.004;2023-05-07T11:34:53;3.90;;;3.60;;
59062;SDS011;44851;45.648;9.004;2023-05-07T11:37:20;4.07;;;3.77;;
59062;SDS011;44851;45.648;9.004;2023-05-07T11:39:46;3.80;;;3.50;;
59062;SDS011;44851;45.648;9.004;2023-05-07T11:42:25;3.73;;;3.47;;
59062;SDS011;44851;45.648;9.004;2023-05-07T11:44:51;3.83;;;3.60;;
59062;SDS011;44851;45.648;9.004;2023-05-07T11:47:17;3.80;;;3.50;;
59062;SDS011;44851;45.648;9.004;2023-05-07T11:49:45;4.40;;;4.00;;
59062;SDS011;44851;45.648;9.004;2023-05-07T11:52:14;3.77;;;3.47;;
59062;SDS011;44851;45.648;9.004;2023-05-07T11:54:40;4.23;;;3.93;;
59062;SDS011;44851;45.648;9.004;2023-05-07T11:57:05;4.13;;;3.73;;
59062;SDS011;44851;45.648;9.004;2023-05-07T11:59:38;4.07;;;3.77;;
59062;SDS011;44851;45.648;9.004;2023-05-07T12:02:05;4.30;;;3.97;;
59062;SDS011;44851;45.648;9.004;2023-05-07T12:04:31;4.23;;;3.83;;
59062;SDS011;44851;45.648;9.004;2023-05-07T12:06:56;3.90;;;3.60;;
59062;SDS011;44851;45.648;9.004;2023-05-07T12:09:22;3.27;;;2.97;;
59062;SDS011;44851;45.648;9.004;2023-05-07T12:11:47;3.67;;;3.37;;
59062;SDS011;44851;45.648;9.004;2023-05-07T12:14:13;4.60;;;4.03;;
59062;SDS011;44851;45.648;9.004;2023-05-07T12:16:39;3.77;;;3.47;;
59062;SDS011;44851;45.648;9.004;2023-05-07T12:19:06;3.63;;;3.23;;
59062;SDS011;44851;45.648;9.004;2023-05-07T12:21:33;3.70;;;3.40;;
59062;SDS011;44851;45.648;9.004;2023-05-07T12:24:00;3.90;;;3.60;;
59062;SDS011;44851;45.648;9.004;2023-05-07T12:26:26;3.57;;;3.37;;
59062;SDS011;44851;45.648;9.004;2023-05-07T12:28:51;4.00;;;3.70;;
59062;SDS011;44851;45.648;9.004;2023-05-07T12:31:17;3.63;;;3.33;;
59062;SDS011;44851;45.648;9.004;2023-05-07T12:33:42;3.53;;;3.23;;
59062;SDS011;44851;45.648;9.004;2023-05-07T12:36:08;3.43;;;3.23;;
59062;SDS011;44851;45.648;9.004;2023-05-07T12:38:34;3.83;;;3.53;;
59062;SDS011;44851;45.648;9.004;2023-05-07T12:41:01;3.70;;;3.40;;
59062;SDS011;44851;45.648;9.004;2023-05-07T12:43:28;3.70;;;3.27;;
59062;SDS011;44851;45.648;9.004;2023-05-07T12:45:54;3.70;;;3.40;;
59062;SDS011;44851;45.648;9.004;2023-05-07T12:48:21;3.67;;;3.17;;
59062;SDS011;44851;45.648;9.004;2023-05-07T12:50:51;3.40;;;3.20;;
59062;SDS011;44851;45.648;9.004;2023-05-07T12:53:21;3.60;;;3.30;;
59062;SDS011;44851;45.648;9.004;2023-05-07T12:55:48;3.87;;;3.57;;
59062;SDS011;44851;45.648;9.004;2023-05-07T12:58:16;3.73;;;3.40;;
59062;SDS011;44851;45.648;9.004;2023-05-07T13:00:42;3.33;;;3.13;;
59062;SDS011;44851;45.648;9.004;2023-05-07T13:03:08;3.60;;;3.30;;
59062;SDS011;44851;45.648;9.004;2023-05-07T13:05:34;3.90;;;3.60;;
59062;SDS011;44851;45.648;9.004;2023-05-07T13:08:00;3.30;;;3.00;;
59062;SDS011;44851;45.648;9.004;2023-05-07T13:10:25;3.50;;;3.20;;
59062;SDS011;44851;45.648;9.004;2023-05-07T13:12:51;3.70;;;3.20;;
59062;SDS011;44851;45.648;9.004;2023-05-07T13:15:17;3.20;;;3.00;;
59062;SDS011;44851;45.648;9.004;2023-05-07T13:17:43;3.47;;;3.23;;
59062;SDS011;44851;45.648;9.004;2023-05-07T13:20:09;3.27;;;2.97;;
59062;SDS011;44851;45.648;9.004;2023-05-07T13:22:36;4.13;;;3.50;;
59062;SDS011;44851;45.648;9.004;2023-05-07T13:25:01;3.17;;;2.80;;
59062;SDS011;44851;45.648;9.004;2023-05-07T13:27:27;3.50;;;3.20;;
59062;SDS011;44851;45.648;9.004;2023-05-07T13:29:52;3.20;;;3.00;;
59062;SDS011;44851;45.648;9.004;2023-05-07T13:32:17;3.30;;;3.03;;
59062;SDS011;44851;45.648;9.004;2023-05-07T13:34:43;3.93;;;3.63;;
59062;SDS011;44851;45.648;9.004;2023-05-07T13:37:08;3.40;;;3.10;;
59062;SDS011;44851;45.648;9.004;2023-05-07T13:39:33;3.73;;;3.30;;
59062;SDS011;44851;45.648;9.004;2023-05-07T13:41:59;3.07;;;2.87;;
59062;SDS011;44851;45.648;9.004;2023-05-07T13:44:24;3.23;;;2.97;;
59062;SDS011;44851;45.648;9.004;2023-05-07T13:46:50;3.60;;;3.30;;
59062;SDS011;44851;45.648;9.004;2023-05-07T13:49:16;2.50;;;2.30;;
59062;SDS011;44851;45.648;9.004;2023-05-07T13:51:41;2.57;;;2.37;;
59062;SDS011;44851;45.648;9.004;2023-05-07T13:54:07;2.70;;;2.50;;
59062;SDS011;44851;45.648;9.004;2023-05-07T13:56:32;2.13;;;2.03;;
59062;SDS011;44851;45.648;9.004;2023-05-07T13:58:58;2.70;;;2.50;;
59062;SDS011;44851;45.648;9.004;2023-05-07T14:01:23;2.30;;;2.10;;
59062;SDS011;44851;45.648;9.004;2023-05-07T14:03:49;2.40;;;2.20;;
59062;SDS011;44851;45.648;9.004;2023-05-07T14:06:14;2.20;;;2.00;;
59062;SDS011;44851;45.648;9.004;2023-05-07T14:08:39;2.57;;;2.37;;
59062;SDS011;44851;45.648;9.004;2023-05-07T14:11:05;2.57;;;2.30;;
59062;SDS011;44851;45.648;9.004;2023-05-07T14:13:31;23.90;;;4.27;;
59062;SDS011;44851;45.648;9.004;2023-05-07T14:15:57;2.83;;;2.60;;
59062;SDS011;44851;45.648;9.004;2023-05-07T14:18:23;3.10;;;2.80;;
59062;SDS011;44851;45.648;9.004;2023-05-07T14:20:48;2.80;;;2.60;;
59062;SDS011;44851;45.648;9.004;2023-05-07T14:23:14;2.80;;;2.60;;
59062;SDS011;44851;45.648;9.004;2023-05-07T14:25:39;3.03;;;2.80;;
59062;SDS011;44851;45.648;9.004;2023-05-07T14:28:05;3.63;;;3.27;;
59062;SDS011;44851;45.648;9.004;2023-05-07T14:30:30;3.07;;;2.80;;
59062;SDS011;44851;45.648;9.004;2023-05-07T14:32:55;3.93;;;3.57;;
59062;SDS011;44851;45.648;9.004;2023-05-07T14:35:21;2.93;;;2.63;;
59062;SDS011;44851;45.648;9.004;2023-05-07T14:37:46;4.90;;;2.83;;
59062;SDS011;44851;45.648;9.004;2023-05-07T14:40:12;3.00;;;2.80;;
59062;SDS011;44851;45.648;9.004;2023-05-07T14:42:37;3.27;;;3.07;;
59062;SDS011;44851;45.648;9.004;2023-05-07T14:45:03;3.00;;;2.80;;
59062;SDS011;44851;45.648;9.004;2023-05-07T14:47:28;3.20;;;2.80;;
59062;SDS011;44851;45.648;9.004;2023-05-07T14:49:54;3.00;;;2.80;;
59062;SDS011;44851;45.648;9.004;2023-05-07T14:52:19;3.23;;;2.67;;
59062;SDS011;44851;45.648;9.004;2023-05-07T14:54:45;2.90;;;2.60;;
59062;SDS011;44851;45.648;9.004;2023-05-07T14:57:14;3.20;;;2.90;;
59062;SDS011;44851;45.648;9.004;2023-05-07T14:59:41;3.10;;;2.80;;
59062;SDS011;44851;45.648;9.004;2023-05-07T15:02:06;2.50;;;2.30;;
59062;SDS011;44851;45.648;9.004;2023-05-07T15:04:32;2.70;;;2.50;;